sensor_id;sensor_type;location;lat;lon;timestamp;temperature;humidity
15535;DHT22;7869;49.264;8.596;2022-10-31T00:01:35;11.00;99.90
15535;DHT22;7869;49.264;8.596;2022-10-31T00:04:02;10.90;99.90
15535;DHT22;7869;49.264;8.596;2022-10-31T00:06:27;10.90;99.90
15535;DHT22;7869;49.264;8.596;2022-10-31T00:08:59;10.80;99.90
15535;DHT22;7869;49.264;8.596;2022-10-31T00:11:25;10.80;99.90
15535;DHT22;7869;49.264;8.596;2022-10-31T00:13:51;10.80;99.90
15535;DHT22;7869;49.264;8.596;2022-10-31T00:16:18;10.80;99.90
15535;DHT22;7869;49.264;8.596;2022-10-31T00:18:50;10.80;99.90
15535;DHT22;7869;49.264;8.596;2022-10-31T00:21:16;10.70;99.90
15535;DHT22;7869;49.264;8.596;2022-10-31T00:23:41;10.70;99.90
15535;DHT22;7869;49.264;8.596;2022-10-31T00:26:07;10.70;99.90
15535;DHT22;7869;49.264;8.596;2022-10-31T00:28:33;10.80;99.90
15535;DHT22;7869;49.264;8.596;2022-10-31T00:31:00;10.80;99.90
15535;DHT22;7869;49.264;8.596;2022-10-31T00:33:26;10.80;99.90
15535;DHT22;7869;49.264;8.596;2022-10-31T00:35:52;10.90;99.90
15535;DHT22;7869;49.264;8.596;2022-10-31T00:38:18;10.90;99.90
15535;DHT22;7869;49.264;8.596;2022-10-31T00:40:43;10.90;99.90
15535;DHT22;7869;49.264;8.596;2022-10-31T00:43:09;10.90;99.90
15535;DHT22;7869;49.264;8.596;2022-10-31T00:45:34;10.80;99.90
15535;DHT22;7869;49.264;8.596;2022-10-31T00:48:00;10.80;99.90
15535;DHT22;7869;49.264;8.596;2022-10-31T00:50:25;10.90;99.90
15535;DHT22;7869;49.264;8.596;2022-10-31T00:52:51;10.80;99.90
15535;DHT22;7869;49.264;8.596;2022-10-31T00:55:16;10.80;99.90
15535;DHT22;7869;49.264;8.596;2022-10-31T00:57:42;10.80;99.90
15535;DHT22;7869;49.264;8.596;2022-10-31T01:00:08;10.80;99.90
15535;DHT22;7869;49.264;8.596;2022-10-31T01:02:33;10.80;99.90
15535;DHT22;7869;49.264;8.596;2022-10-31T01:04:59;10.70;99.90
15535;DHT22;7869;49.264;8.596;2022-10-31T01:07:24;10.80;99.90
15535;DHT22;7869;49.264;8.596;2022-10-31T01:09:50;10.70;99.90
15535;DHT22;7869;49.264;8.596;2022-10-31T01:12:15;10.70;99.90
15535;DHT22;7869;49.264;8.596;2022-10-31T01:14:45;10.70;99.90
15535;DHT22;7869;49.264;8.596;2022-10-31T01:17:11;10.70;99.90
15535;DHT22;7869;49.264;8.596;2022-10-31T01:19:37;10.70;99.90
15535;DHT22;7869;49.264;8.596;2022-10-31T01:22:02;10.60;99.90
15535;DHT22;7869;49.264;8.596;2022-10-31T01:24:28;10.60;99.90
15535;DHT22;7869;49.264;8.596;2022-10-31T01:26:53;10.60;99.90
15535;DHT22;7869;49.264;8.596;2022-10-31T01:29:19;10.60;99.90
15535;DHT22;7869;49.264;8.596;2022-10-31T01:31:44;10.60;99.90
15535;DHT22;7869;49.264;8.596;2022-10-31T01:34:14;10.50;99.90
15535;DHT22;7869;49.264;8.596;2022-10-31T01:36:41;10.50;99.90
15535;DHT22;7869;49.264;8.596;2022-10-31T01:39:09;10.40;99.90
15535;DHT22;7869;49.264;8.596;2022-10-31T01:41:38;10.40;99.90
15535;DHT22;7869;49.264;8.596;2022-10-31T01:47:04;10.40;99.90
15535;DHT22;7869;49.264;8.596;2022-10-31T01:49:40;10.40;99.90
15535;DHT22;7869;49.264;8.596;2022-10-31T01:54:47;10.40;99.90
15535;DHT22;7869;49.264;8.596;2022-10-31T01:57:14;10.40;99.90
15535;DHT22;7869;49.264;8.596;2022-10-31T01:59:47;10.40;99.90
15535;DHT22;7869;49.264;8.596;2022-10-31T02:02:15;10.40;99.90
15535;DHT22;7869;49.264;8.596;2022-10-31T02:04:41;10.30;99.90
15535;DHT22;7869;49.264;8.596;2022-10-31T02:07:20;10.20;99.90
15535;DHT22;7869;49.264;8.596;2022-10-31T02:09:47;10.20;99.90
15535;DHT22;7869;49.264;8.596;2022-10-31T02:12:15;10.20;99.90
15535;DHT22;7869;49.264;8.596;2022-10-31T02:14:41;10.20;99.90
15535;DHT22;7869;49.264;8.596;2022-10-31T02:17:07;10.20;99.90
15535;DHT22;7869;49.264;8.596;2022-10-31T02:25:59;10.10;99.90
15535;DHT22;7869;49.264;8.596;2022-10-31T02:33:43;10.10;99.90
15535;DHT22;7869;49.264;8.596;2022-10-31T02:36:28;10.10;99.90
15535;DHT22;7869;49.264;8.596;2022-10-31T02:39:18;10.10;99.90
15535;DHT22;7869;49.264;8.596;2022-10-31T02:42:00;10.10;99.90
15535;DHT22;7869;49.264;8.596;2022-10-31T02:47:14;10.10;99.90
15535;DHT22;7869;49.264;8.596;2022-10-31T02:49:54;10.10;99.90
15535;DHT22;7869;49.264;8.596;2022-10-31T02:52:26;10.10;99.90
15535;DHT22;7869;49.264;8.596;2022-10-31T02:54:52;10.10;99.90
15535;DHT22;7869;49.264;8.596;2022-10-31T02:57:25;10.20;99.90
15535;DHT22;7869;49.264;8.596;2022-10-31T02:59:56;10.30;99.90
15535;DHT22;7869;49.264;8.596;2022-10-31T03:05:21;10.30;99.90
15535;DHT22;7869;49.264;8.596;2022-10-31T03:08:03;10.30;99.90
15535;DHT22;7869;49.264;8.596;2022-10-31T03:10:38;10.30;99.90
15535;DHT22;7869;49.264;8.596;2022-10-31T03:13:21;10.30;99.90
15535;DHT22;7869;49.264;8.596;2022-10-31T03:15:51;10.30;99.90
15535;DHT22;7869;49.264;8.596;2022-10-31T03:18:29;10.30;99.90
15535;DHT22;7869;49.264;8.596;2022-10-31T03:21:04;10.30;99.90
15535;DHT22;7869;49.264;8.596;2022-10-31T03:23:32;10.40;99.90
15535;DHT22;7869;49.264;8.596;2022-10-31T03:26:00;10.40;99.90
15535;DHT22;7869;49.264;8.596;2022-10-31T03:28:30;10.40;99.90
15535;DHT22;7869;49.264;8.596;2022-10-31T03:30:59;10.40;99.90
15535;DHT22;7869;49.264;8.596;2022-10-31T03:33:28;10.40;99.90
15535;DHT22;7869;49.264;8.596;2022-10-31T03:35:58;10.40;99.90
15535;DHT22;7869;49.264;8.596;2022-10-31T03:38:25;10.50;99.90
15535;DHT22;7869;49.264;8.596;2022-10-31T03:40:51;10.50;99.90
15535;DHT22;7869;49.264;8.596;2022-10-31T03:43:24;10.40;99.90
15535;DHT22;7869;49.264;8.596;2022-10-31T03:45:52;10.40;99.90
15535;DHT22;7869;49.264;8.596;2022-10-31T03:48:19;10.40;99.90
15535;DHT22;7869;49.264;8.596;2022-10-31T03:50:57;10.30;99.90
15535;DHT22;7869;49.264;8.596;2022-10-31T03:53:27;10.30;99.90
15535;DHT22;7869;49.264;8.596;2022-10-31T03:56:03;10.20;99.90
15535;DHT22;7869;49.264;8.596;2022-10-31T03:58:36;10.20;99.90
15535;DHT22;7869;49.264;8.596;2022-10-31T04:01:06;10.20;99.90
15535;DHT22;7869;49.264;8.596;2022-10-31T04:03:35;10.20;99.90
15535;DHT22;7869;49.264;8.596;2022-10-31T04:06:06;10.20;99.90
15535;DHT22;7869;49.264;8.596;2022-10-31T04:08:36;10.30;99.90
15535;DHT22;7869;49.264;8.596;2022-10-31T04:11:04;10.30;99.90
15535;DHT22;7869;49.264;8.596;2022-10-31T04:13:33;10.30;99.90
15535;DHT22;7869;49.264;8.596;2022-10-31T04:15:59;10.30;99.90
15535;DHT22;7869;49.264;8.596;2022-10-31T04:18:25;10.30;99.90
15535;DHT22;7869;49.264;8.596;2022-10-31T04:21:00;10.30;99.90
15535;DHT22;7869;49.264;8.596;2022-10-31T04:23:27;10.30;99.90
15535;DHT22;7869;49.264;8.596;2022-10-31T04:25:53;10.20;99.90
15535;DHT22;7869;49.264;8.596;2022-10-31T04:28:18;10.20;99.90
15535;DHT22;7869;49.264;8.596;2022-10-31T04:30:44;10.10;99.90
15535;DHT22;7869;49.264;8.596;2022-10-31T04:33:10;10.10;99.90
15535;DHT22;7869;49.264;8.596;2022-10-31T04:35:35;10.10;99.90
15535;DHT22;7869;49.264;8.596;2022-10-31T04:38:01;10.10;99.90
15535;DHT22;7869;49.264;8.596;2022-10-31T04:40:26;10.10;99.90
15535;DHT22;7869;49.264;8.596;2022-10-31T04:42:52;10.10;99.90
15535;DHT22;7869;49.264;8.596;2022-10-31T04:45:17;10.10;99.90
15535;DHT22;7869;49.264;8.596;2022-10-31T04:47:43;10.10;99.90
15535;DHT22;7869;49.264;8.596;2022-10-31T04:50:09;10.00;99.90
15535;DHT22;7869;49.264;8.596;2022-10-31T04:52:44;10.00;99.90
15535;DHT22;7869;49.264;8.596;2022-10-31T04:55:11;10.00;99.90
15535;DHT22;7869;49.264;8.596;2022-10-31T04:57:48;9.90;99.90
15535;DHT22;7869;49.264;8.596;2022-10-31T05:00:15;9.90;99.90
15535;DHT22;7869;49.264;8.596;2022-10-31T05:02:46;9.90;99.90
15535;DHT22;7869;49.264;8.596;2022-10-31T05:05:13;9.90;99.90
15535;DHT22;7869;49.264;8.596;2022-10-31T05:07:43;9.80;99.90
15535;DHT22;7869;49.264;8.596;2022-10-31T05:10:10;9.80;99.90
15535;DHT22;7869;49.264;8.596;2022-10-31T05:12:37;9.90;99.90
15535;DHT22;7869;49.264;8.596;2022-10-31T05:15:03;9.80;99.90
15535;DHT22;7869;49.264;8.596;2022-10-31T05:17:31;9.80;99.90
15535;DHT22;7869;49.264;8.596;2022-10-31T05:19:56;9.70;99.90
15535;DHT22;7869;49.264;8.596;2022-10-31T05:22:22;9.70;99.90
15535;DHT22;7869;49.264;8.596;2022-10-31T05:24:47;9.60;99.90
15535;DHT22;7869;49.264;8.596;2022-10-31T05:27:13;9.60;99.90
15535;DHT22;7869;49.264;8.596;2022-10-31T05:29:38;9.50;99.90
15535;DHT22;7869;49.264;8.596;2022-10-31T05:32:04;9.50;99.90
15535;DHT22;7869;49.264;8.596;2022-10-31T05:34:29;9.40;99.90
15535;DHT22;7869;49.264;8.596;2022-10-31T05:36:55;9.40;99.90
15535;DHT22;7869;49.264;8.596;2022-10-31T05:39:20;9.30;99.90
15535;DHT22;7869;49.264;8.596;2022-10-31T05:41:46;9.30;99.90
15535;DHT22;7869;49.264;8.596;2022-10-31T05:44:11;9.30;99.90
15535;DHT22;7869;49.264;8.596;2022-10-31T05:46:37;9.20;99.90
15535;DHT22;7869;49.264;8.596;2022-10-31T05:49:02;9.30;99.90
15535;DHT22;7869;49.264;8.596;2022-10-31T05:51:28;9.30;99.90
15535;DHT22;7869;49.264;8.596;2022-10-31T05:53:53;9.40;99.90
15535;DHT22;7869;49.264;8.596;2022-10-31T05:56:19;9.50;99.90
15535;DHT22;7869;49.264;8.596;2022-10-31T05:58:44;9.60;99.90
15535;DHT22;7869;49.264;8.596;2022-10-31T06:01:10;9.70;99.90
15535;DHT22;7869;49.264;8.596;2022-10-31T06:03:35;9.70;99.90
15535;DHT22;7869;49.264;8.596;2022-10-31T06:06:01;9.80;99.90
15535;DHT22;7869;49.264;8.596;2022-10-31T06:08:26;9.80;99.90
15535;DHT22;7869;49.264;8.596;2022-10-31T06:10:52;9.80;99.90
15535;DHT22;7869;49.264;8.596;2022-10-31T06:13:19;9.80;99.90
15535;DHT22;7869;49.264;8.596;2022-10-31T06:15:44;9.80;99.90
15535;DHT22;7869;49.264;8.596;2022-10-31T06:18:10;9.90;99.90
15535;DHT22;7869;49.264;8.596;2022-10-31T06:20:36;9.80;99.90
15535;DHT22;7869;49.264;8.596;2022-10-31T06:23:02;9.90;99.90
15535;DHT22;7869;49.264;8.596;2022-10-31T06:25:28;9.90;99.90
15535;DHT22;7869;49.264;8.596;2022-10-31T06:27:54;9.90;99.90
15535;DHT22;7869;49.264;8.596;2022-10-31T06:30:20;10.00;99.90
15535;DHT22;7869;49.264;8.596;2022-10-31T06:32:45;10.00;99.90
15535;DHT22;7869;49.264;8.596;2022-10-31T06:35:11;10.00;99.90
15535;DHT22;7869;49.264;8.596;2022-10-31T06:37:37;10.10;99.90
15535;DHT22;7869;49.264;8.596;2022-10-31T06:40:03;10.10;99.90
15535;DHT22;7869;49.264;8.596;2022-10-31T06:42:29;10.10;99.90
15535;DHT22;7869;49.264;8.596;2022-10-31T06:44:54;10.20;99.90
15535;DHT22;7869;49.264;8.596;2022-10-31T06:47:20;10.20;99.90
15535;DHT22;7869;49.264;8.596;2022-10-31T06:49:45;10.20;99.90
15535;DHT22;7869;49.264;8.596;2022-10-31T06:52:11;10.30;99.90
15535;DHT22;7869;49.264;8.596;2022-10-31T06:54:36;10.30;99.90
15535;DHT22;7869;49.264;8.596;2022-10-31T06:57:02;10.40;99.90
15535;DHT22;7869;49.264;8.596;2022-10-31T06:59:27;10.50;99.90
15535;DHT22;7869;49.264;8.596;2022-10-31T07:01:53;10.60;99.90
15535;DHT22;7869;49.264;8.596;2022-10-31T07:04:18;10.70;99.90
15535;DHT22;7869;49.264;8.596;2022-10-31T07:06:44;10.70;99.90
15535;DHT22;7869;49.264;8.596;2022-10-31T07:09:09;10.80;99.90
15535;DHT22;7869;49.264;8.596;2022-10-31T07:11:35;10.90;99.90
15535;DHT22;7869;49.264;8.596;2022-10-31T07:14:00;11.00;99.90
15535;DHT22;7869;49.264;8.596;2022-10-31T07:16:26;11.10;99.90
15535;DHT22;7869;49.264;8.596;2022-10-31T07:18:52;11.20;99.90
15535;DHT22;7869;49.264;8.596;2022-10-31T07:21:17;11.30;99.90
15535;DHT22;7869;49.264;8.596;2022-10-31T07:23:43;11.40;99.90
15535;DHT22;7869;49.264;8.596;2022-10-31T07:26:09;11.40;99.90
15535;DHT22;7869;49.264;8.596;2022-10-31T07:28:35;11.50;99.90
15535;DHT22;7869;49.264;8.596;2022-10-31T07:31:00;11.60;99.90
15535;DHT22;7869;49.264;8.596;2022-10-31T07:33:26;11.70;99.90
15535;DHT22;7869;49.264;8.596;2022-10-31T07:35:52;11.80;99.90
15535;DHT22;7869;49.264;8.596;2022-10-31T07:38:18;11.90;99.90
15535;DHT22;7869;49.264;8.596;2022-10-31T07:40:43;11.90;99.90
15535;DHT22;7869;49.264;8.596;2022-10-31T07:43:11;12.00;99.90
15535;DHT22;7869;49.264;8.596;2022-10-31T07:45:37;12.10;99.90
15535;DHT22;7869;49.264;8.596;2022-10-31T07:48:03;12.20;99.90
15535;DHT22;7869;49.264;8.596;2022-10-31T07:50:30;12.30;99.90
15535;DHT22;7869;49.264;8.596;2022-10-31T07:55:25;12.50;99.90
15535;DHT22;7869;49.264;8.596;2022-10-31T07:58:00;12.60;99.90
15535;DHT22;7869;49.264;8.596;2022-10-31T08:00:26;12.70;99.90
15535;DHT22;7869;49.264;8.596;2022-10-31T08:03:03;12.80;99.90
15535;DHT22;7869;49.264;8.596;2022-10-31T08:05:29;12.90;99.90
15535;DHT22;7869;49.264;8.596;2022-10-31T08:07:55;13.00;99.90
15535;DHT22;7869;49.264;8.596;2022-10-31T08:10:22;13.10;99.90
15535;DHT22;7869;49.264;8.596;2022-10-31T08:12:55;13.10;99.90
15535;DHT22;7869;49.264;8.596;2022-10-31T08:15:20;13.20;99.90
15535;DHT22;7869;49.264;8.596;2022-10-31T08:17:46;13.30;99.90
15535;DHT22;7869;49.264;8.596;2022-10-31T08:20:11;13.40;99.90
15535;DHT22;7869;49.264;8.596;2022-10-31T08:22:37;13.50;99.90
15535;DHT22;7869;49.264;8.596;2022-10-31T08:25:03;13.60;99.90
15535;DHT22;7869;49.264;8.596;2022-10-31T08:27:28;13.60;99.90
15535;DHT22;7869;49.264;8.596;2022-10-31T08:29:54;13.70;99.90
15535;DHT22;7869;49.264;8.596;2022-10-31T08:32:19;13.80;99.90
15535;DHT22;7869;49.264;8.596;2022-10-31T08:34:45;13.90;99.90
15535;DHT22;7869;49.264;8.596;2022-10-31T08:37:10;14.00;99.90
15535;DHT22;7869;49.264;8.596;2022-10-31T08:39:36;14.00;99.90
15535;DHT22;7869;49.264;8.596;2022-10-31T08:42:01;14.10;99.90
15535;DHT22;7869;49.264;8.596;2022-10-31T08:44:27;14.10;99.90
15535;DHT22;7869;49.264;8.596;2022-10-31T08:46:53;14.20;99.90
15535;DHT22;7869;49.264;8.596;2022-10-31T08:49:18;14.20;99.90
15535;DHT22;7869;49.264;8.596;2022-10-31T08:51:47;14.30;99.90
15535;DHT22;7869;49.264;8.596;2022-10-31T08:54:13;14.30;99.90
15535;DHT22;7869;49.264;8.596;2022-10-31T08:56:39;14.50;99.90
15535;DHT22;7869;49.264;8.596;2022-10-31T08:59:04;14.60;99.90
15535;DHT22;7869;49.264;8.596;2022-10-31T09:01:30;14.70;99.90
15535;DHT22;7869;49.264;8.596;2022-10-31T09:03:55;14.80;99.90
15535;DHT22;7869;49.264;8.596;2022-10-31T09:06:21;14.90;99.90
15535;DHT22;7869;49.264;8.596;2022-10-31T09:08:47;15.00;99.90
15535;DHT22;7869;49.264;8.596;2022-10-31T09:11:12;15.10;99.90
15535;DHT22;7869;49.264;8.596;2022-10-31T09:13:38;15.20;99.90
15535;DHT22;7869;49.264;8.596;2022-10-31T09:16:04;15.30;99.90
15535;DHT22;7869;49.264;8.596;2022-10-31T09:18:29;15.40;99.90
15535;DHT22;7869;49.264;8.596;2022-10-31T09:20:58;15.40;99.90
15535;DHT22;7869;49.264;8.596;2022-10-31T09:23:24;15.50;99.90
15535;DHT22;7869;49.264;8.596;2022-10-31T09:25:52;15.60;99.90
15535;DHT22;7869;49.264;8.596;2022-10-31T09:28:20;15.70;99.90
15535;DHT22;7869;49.264;8.596;2022-10-31T09:30:50;15.80;99.90
15535;DHT22;7869;49.264;8.596;2022-10-31T09:33:16;15.90;99.90
15535;DHT22;7869;49.264;8.596;2022-10-31T09:35:42;15.90;99.90
15535;DHT22;7869;49.264;8.596;2022-10-31T09:38:10;15.90;99.90
15535;DHT22;7869;49.264;8.596;2022-10-31T09:40:38;15.90;99.90
15535;DHT22;7869;49.264;8.596;2022-10-31T09:49:11;16.30;99.90
15535;DHT22;7869;49.264;8.596;2022-10-31T09:51:44;16.40;99.90
15535;DHT22;7869;49.264;8.596;2022-10-31T09:54:15;16.60;99.90
15535;DHT22;7869;49.264;8.596;2022-10-31T09:56:41;16.70;99.90
15535;DHT22;7869;49.264;8.596;2022-10-31T09:59:30;16.80;99.90
15535;DHT22;7869;49.264;8.596;2022-10-31T10:02:00;16.90;99.90
15535;DHT22;7869;49.264;8.596;2022-10-31T10:06:56;17.10;99.90
15535;DHT22;7869;49.264;8.596;2022-10-31T10:09:26;17.10;99.90
15535;DHT22;7869;49.264;8.596;2022-10-31T10:17:16;17.30;99.90
15535;DHT22;7869;49.264;8.596;2022-10-31T10:26:01;17.40;99.90
15535;DHT22;7869;49.264;8.596;2022-10-31T10:28:31;17.50;99.90
15535;DHT22;7869;49.264;8.596;2022-10-31T10:31:15;17.50;99.90
15535;DHT22;7869;49.264;8.596;2022-10-31T10:36:37;17.50;99.90
15535;DHT22;7869;49.264;8.596;2022-10-31T10:39:23;17.50;99.90
15535;DHT22;7869;49.264;8.596;2022-10-31T10:41:51;17.40;99.90
15535;DHT22;7869;49.264;8.596;2022-10-31T10:44:40;17.40;99.90
15535;DHT22;7869;49.264;8.596;2022-10-31T10:47:34;17.40;99.90
15535;DHT22;7869;49.264;8.596;2022-10-31T10:50:20;17.40;99.90
15535;DHT22;7869;49.264;8.596;2022-10-31T10:52:53;17.40;99.90
15535;DHT22;7869;49.264;8.596;2022-10-31T10:58:05;17.50;99.90
15535;DHT22;7869;49.264;8.596;2022-10-31T11:00:42;17.60;99.90
15535;DHT22;7869;49.264;8.596;2022-10-31T11:03:10;17.60;99.90
15535;DHT22;7869;49.264;8.596;2022-10-31T11:05:40;17.70;99.90
15535;DHT22;7869;49.264;8.596;2022-10-31T11:08:08;17.70;99.90
15535;DHT22;7869;49.264;8.596;2022-10-31T11:10:34;17.80;99.90
15535;DHT22;7869;49.264;8.596;2022-10-31T11:18:24;18.00;99.90
15535;DHT22;7869;49.264;8.596;2022-10-31T11:20:53;18.00;99.90
15535;DHT22;7869;49.264;8.596;2022-10-31T11:23:22;18.10;99.90
15535;DHT22;7869;49.264;8.596;2022-10-31T11:26:18;18.20;99.90
15535;DHT22;7869;49.264;8.596;2022-10-31T11:28:44;18.30;99.90
15535;DHT22;7869;49.264;8.596;2022-10-31T11:31:21;18.30;99.90
15535;DHT22;7869;49.264;8.596;2022-10-31T11:33:49;18.30;99.90
15535;DHT22;7869;49.264;8.596;2022-10-31T11:36:25;18.40;99.90
15535;DHT22;7869;49.264;8.596;2022-10-31T11:38:53;18.50;99.90
15535;DHT22;7869;49.264;8.596;2022-10-31T11:41:28;18.50;99.90
15535;DHT22;7869;49.264;8.596;2022-10-31T11:43:57;18.60;99.90
15535;DHT22;7869;49.264;8.596;2022-10-31T11:48:59;18.70;99.90
15535;DHT22;7869;49.264;8.596;2022-10-31T11:51:28;18.70;99.90
15535;DHT22;7869;49.264;8.596;2022-10-31T11:53:56;18.90;99.90
15535;DHT22;7869;49.264;8.596;2022-10-31T11:56:22;18.80;99.90
15535;DHT22;7869;49.264;8.596;2022-10-31T11:59:03;18.70;99.90
15535;DHT22;7869;49.264;8.596;2022-10-31T12:01:31;18.50;99.90
15535;DHT22;7869;49.264;8.596;2022-10-31T12:06:34;18.30;99.90
15535;DHT22;7869;49.264;8.596;2022-10-31T12:09:00;18.40;99.90
15535;DHT22;7869;49.264;8.596;2022-10-31T12:17:18;18.50;99.90
15535;DHT22;7869;49.264;8.596;2022-10-31T12:19:58;18.60;99.90
15535;DHT22;7869;49.264;8.596;2022-10-31T12:28:27;18.50;99.90
15535;DHT22;7869;49.264;8.596;2022-10-31T12:31:06;18.40;99.90
15535;DHT22;7869;49.264;8.596;2022-10-31T12:42:05;18.40;99.90
15535;DHT22;7869;49.264;8.596;2022-10-31T12:44:55;18.40;99.90
15535;DHT22;7869;49.264;8.596;2022-10-31T12:47:35;18.50;99.90
15535;DHT22;7869;49.264;8.596;2022-10-31T12:50:31;18.50;99.90
15535;DHT22;7869;49.264;8.596;2022-10-31T12:59:01;18.80;99.90
15535;DHT22;7869;49.264;8.596;2022-10-31T13:01:45;18.90;99.90
15535;DHT22;7869;49.264;8.596;2022-10-31T13:04:21;19.00;99.90
15535;DHT22;7869;49.264;8.596;2022-10-31T13:06:53;19.00;99.90
15535;DHT22;7869;49.264;8.596;2022-10-31T13:09:27;19.00;99.90
15535;DHT22;7869;49.264;8.596;2022-10-31T13:11:58;19.00;99.90
15535;DHT22;7869;49.264;8.596;2022-10-31T13:14:46;19.00;99.90
15535;DHT22;7869;49.264;8.596;2022-10-31T13:19:47;18.80;99.90
15535;DHT22;7869;49.264;8.596;2022-10-31T13:22:22;18.70;99.90
15535;DHT22;7869;49.264;8.596;2022-10-31T13:24:54;18.60;99.90
15535;DHT22;7869;49.264;8.596;2022-10-31T13:27:21;18.60;99.90
15535;DHT22;7869;49.264;8.596;2022-10-31T13:30:03;18.50;99.90
15535;DHT22;7869;49.264;8.596;2022-10-31T13:32:47;18.60;99.90
15535;DHT22;7869;49.264;8.596;2022-10-31T13:40:47;19.00;99.90
15535;DHT22;7869;49.264;8.596;2022-10-31T13:43:23;19.30;99.90
15535;DHT22;7869;49.264;8.596;2022-10-31T13:45:54;19.50;99.90
15535;DHT22;7869;49.264;8.596;2022-10-31T13:48:38;19.70;99.90
15535;DHT22;7869;49.264;8.596;2022-10-31T13:51:07;19.70;99.90
15535;DHT22;7869;49.264;8.596;2022-10-31T13:53:41;19.70;99.90
15535;DHT22;7869;49.264;8.596;2022-10-31T13:58:34;19.60;99.90
15535;DHT22;7869;49.264;8.596;2022-10-31T14:03:38;19.70;99.90
15535;DHT22;7869;49.264;8.596;2022-10-31T14:06:06;19.70;99.90
15535;DHT22;7869;49.264;8.596;2022-10-31T14:08:34;19.60;99.90
15535;DHT22;7869;49.264;8.596;2022-10-31T14:11:01;19.60;99.90
15535;DHT22;7869;49.264;8.596;2022-10-31T14:13:32;19.60;99.90
15535;DHT22;7869;49.264;8.596;2022-10-31T14:16:04;19.50;99.90
15535;DHT22;7869;49.264;8.596;2022-10-31T14:18:39;19.50;99.90
15535;DHT22;7869;49.264;8.596;2022-10-31T14:23:50;19.40;99.90
15535;DHT22;7869;49.264;8.596;2022-10-31T14:29:20;19.10;99.90
15535;DHT22;7869;49.264;8.596;2022-10-31T14:31:51;18.90;99.90
15535;DHT22;7869;49.264;8.596;2022-10-31T14:45:22;18.30;99.90
15535;DHT22;7869;49.264;8.596;2022-10-31T14:51:07;18.00;99.90
15535;DHT22;7869;49.264;8.596;2022-10-31T14:53:21;17.90;99.90
15535;DHT22;7869;49.264;8.596;2022-10-31T14:55:49;17.90;99.90
15535;DHT22;7869;49.264;8.596;2022-10-31T14:58:37;17.90;99.90
15535;DHT22;7869;49.264;8.596;2022-10-31T15:01:04;17.80;99.90
15535;DHT22;7869;49.264;8.596;2022-10-31T15:03:31;17.60;99.90
15535;DHT22;7869;49.264;8.596;2022-10-31T15:06:01;17.60;99.90
15535;DHT22;7869;49.264;8.596;2022-10-31T15:08:32;17.50;99.90
15535;DHT22;7869;49.264;8.596;2022-10-31T15:10:58;17.40;99.90
15535;DHT22;7869;49.264;8.596;2022-10-31T15:13:23;17.30;99.90
15535;DHT22;7869;49.264;8.596;2022-10-31T15:15:51;17.30;99.90
15535;DHT22;7869;49.264;8.596;2022-10-31T15:18:21;17.30;99.90
15535;DHT22;7869;49.264;8.596;2022-10-31T15:20:50;17.30;99.90
15535;DHT22;7869;49.264;8.596;2022-10-31T15:23:24;17.30;99.90
15535;DHT22;7869;49.264;8.596;2022-10-31T15:25:50;17.30;99.90
15535;DHT22;7869;49.264;8.596;2022-10-31T15:28:24;17.20;99.90
15535;DHT22;7869;49.264;8.596;2022-10-31T15:30:58;17.10;99.90
15535;DHT22;7869;49.264;8.596;2022-10-31T15:33:46;17.10;99.90
15535;DHT22;7869;49.264;8.596;2022-10-31T15:36:24;17.10;99.90
15535;DHT22;7869;49.264;8.596;2022-10-31T15:38:51;17.00;99.90
15535;DHT22;7869;49.264;8.596;2022-10-31T15:43:56;16.90;99.90
15535;DHT22;7869;49.264;8.596;2022-10-31T15:46:25;16.90;99.90
15535;DHT22;7869;49.264;8.596;2022-10-31T15:48:52;16.80;99.90
15535;DHT22;7869;49.264;8.596;2022-10-31T15:51:25;16.80;99.90
15535;DHT22;7869;49.264;8.596;2022-10-31T15:53:52;16.80;99.90
15535;DHT22;7869;49.264;8.596;2022-10-31T15:56:22;16.70;99.90
15535;DHT22;7869;49.264;8.596;2022-10-31T15:58:51;16.70;99.90
15535;DHT22;7869;49.264;8.596;2022-10-31T16:01:31;16.60;99.90
15535;DHT22;7869;49.264;8.596;2022-10-31T16:04:21;16.60;99.90
15535;DHT22;7869;49.264;8.596;2022-10-31T16:07:01;16.50;99.90
15535;DHT22;7869;49.264;8.596;2022-10-31T16:09:27;16.50;99.90
15535;DHT22;7869;49.264;8.596;2022-10-31T16:11:56;16.40;99.90
15535;DHT22;7869;49.264;8.596;2022-10-31T16:14:24;16.40;99.90
15535;DHT22;7869;49.264;8.596;2022-10-31T16:16:52;16.40;99.90
15535;DHT22;7869;49.264;8.596;2022-10-31T16:19:32;16.30;99.90
15535;DHT22;7869;49.264;8.596;2022-10-31T16:22:08;16.30;99.90
15535;DHT22;7869;49.264;8.596;2022-10-31T16:27:18;16.20;99.90
15535;DHT22;7869;49.264;8.596;2022-10-31T16:29:46;16.10;99.90
15535;DHT22;7869;49.264;8.596;2022-10-31T16:32:32;16.10;99.90
15535;DHT22;7869;49.264;8.596;2022-10-31T16:35:23;16.00;99.90
15535;DHT22;7869;49.264;8.596;2022-10-31T16:37:50;15.90;99.90
15535;DHT22;7869;49.264;8.596;2022-10-31T16:40:15;15.80;99.90
15535;DHT22;7869;49.264;8.596;2022-10-31T16:42:42;15.80;99.90
15535;DHT22;7869;49.264;8.596;2022-10-31T16:45:18;15.60;99.90
15535;DHT22;7869;49.264;8.596;2022-10-31T16:47:44;15.40;99.90
15535;DHT22;7869;49.264;8.596;2022-10-31T16:50:15;15.40;99.90
15535;DHT22;7869;49.264;8.596;2022-10-31T16:52:41;15.30;99.90
15535;DHT22;7869;49.264;8.596;2022-10-31T16:55:11;15.30;99.90
15535;DHT22;7869;49.264;8.596;2022-10-31T16:57:37;15.20;99.90
15535;DHT22;7869;49.264;8.596;2022-10-31T17:00:03;15.20;99.90
15535;DHT22;7869;49.264;8.596;2022-10-31T17:02:29;15.10;99.90
15535;DHT22;7869;49.264;8.596;2022-10-31T17:04:54;15.10;99.90
15535;DHT22;7869;49.264;8.596;2022-10-31T17:07:20;15.10;99.90
15535;DHT22;7869;49.264;8.596;2022-10-31T17:09:46;15.10;99.90
15535;DHT22;7869;49.264;8.596;2022-10-31T17:12:17;15.10;99.90
15535;DHT22;7869;49.264;8.596;2022-10-31T17:14:47;15.10;99.90
15535;DHT22;7869;49.264;8.596;2022-10-31T17:17:13;15.10;99.90
15535;DHT22;7869;49.264;8.596;2022-10-31T17:19:39;15.00;99.90
15535;DHT22;7869;49.264;8.596;2022-10-31T17:22:05;15.00;99.90
15535;DHT22;7869;49.264;8.596;2022-10-31T17:24:30;15.00;99.90
15535;DHT22;7869;49.264;8.596;2022-10-31T17:26:56;14.90;99.90
15535;DHT22;7869;49.264;8.596;2022-10-31T17:29:21;14.90;99.90
15535;DHT22;7869;49.264;8.596;2022-10-31T17:31:47;14.80;99.90
15535;DHT22;7869;49.264;8.596;2022-10-31T17:34:13;14.80;99.90
15535;DHT22;7869;49.264;8.596;2022-10-31T17:36:39;14.70;99.90
15535;DHT22;7869;49.264;8.596;2022-10-31T17:39:04;14.60;99.90
15535;DHT22;7869;49.264;8.596;2022-10-31T17:41:31;14.60;99.90
15535;DHT22;7869;49.264;8.596;2022-10-31T17:43:58;14.50;99.90
15535;DHT22;7869;49.264;8.596;2022-10-31T17:46:24;14.50;99.90
15535;DHT22;7869;49.264;8.596;2022-10-31T17:48:49;14.40;99.90
15535;DHT22;7869;49.264;8.596;2022-10-31T17:51:15;14.40;99.90
15535;DHT22;7869;49.264;8.596;2022-10-31T17:53:41;14.30;99.90
15535;DHT22;7869;49.264;8.596;2022-10-31T17:56:07;14.30;99.90
15535;DHT22;7869;49.264;8.596;2022-10-31T17:58:35;14.30;99.90
15535;DHT22;7869;49.264;8.596;2022-10-31T18:01:09;14.30;99.90
15535;DHT22;7869;49.264;8.596;2022-10-31T18:03:35;14.30;99.90
15535;DHT22;7869;49.264;8.596;2022-10-31T18:06:01;14.10;99.90